Time;durP1;ratioP1;P1;durP2;ratioP2;P2;SDS_P1;SDS_P2;PMS_P1;PMS_P2;Temp;Humidity;BMP_temperature;BMP_pressure;BME280_temperature;BME280_humidity;BME280_pressure;Samples;Min_cycle;Max_cycle;Signal;HPM_P1;HPM_P2
2022/01/03 00:01:14;;;;;;;9.43;1.83;;;8.10;99.90;;;;;;5030616;28;20071;-83
2022/01/03 00:03:40;;;;;;;9.98;1.60;;;8.20;99.90;;;;;;5030488;28;20080;-85
2022/01/03 00:06:05;;;;;;;9.32;1.70;;;8.20;99.90;;;;;;5014401;28;20068;-83
2022/01/03 00:08:31;;;;;;;12.38;2.35;;;8.20;99.90;;;;;;5028305;28;20040;-83
2022/01/03 00:10:57;;;;;;;11.02;2.05;;;8.30;99.90;;;;;;5030732;28;20041;-84
2022/01/03 00:13:23;;;;;;;11.98;2.25;;;8.30;99.90;;;;;;5030427;28;20067;-84
2022/01/03 00:15:50;;;;;;;9.55;2.08;;;8.40;99.90;;;;;;5014805;28;20030;-84
2022/01/03 00:18:16;;;;;;;6.30;2.28;;;8.50;99.90;;;;;;5030984;28;20068;-83
2022/01/03 00:20:51;;;;;;;9.35;2.53;;;8.50;99.90;;;;;;5014555;28;20077;-84
2022/01/03 00:23:21;;;;;;;10.70;2.22;;;8.50;99.90;;;;;;5031686;28;20092;-85
2022/01/03 00:25:51;;;;;;;14.30;2.45;;;8.50;99.90;;;;;;5031002;28;20080;-85
2022/01/03 00:28:23;;;;;;;12.60;2.17;;;8.60;99.90;;;;;;5031596;28;20045;-85
2022/01/03 00:30:55;;;;;;;12.88;2.22;;;8.60;99.90;;;;;;5030682;28;20561;-83
2022/01/03 00:33:23;;;;;;;12.07;2.13;;;8.60;99.90;;;;;;5031675;28;20087;-85
2022/01/03 00:35:58;;;;;;;14.38;2.75;;;8.70;99.90;;;;;;5030391;28;20451;-84
2022/01/03 00:38:29;;;;;;;10.90;2.33;;;8.70;99.90;;;;;;5031573;28;20088;-84
2022/01/03 00:40:55;;;;;;;16.05;2.13;;;8.70;99.90;;;;;;5030810;28;20041;-84
2022/01/03 00:43:21;;;;;;;10.38;2.22;;;8.70;99.90;;;;;;5031411;28;20414;-85
2022/01/03 00:45:50;;;;;;;11.25;2.95;;;8.80;99.90;;;;;;5030345;28;20048;-84
2022/01/03 00:48:15;;;;;;;16.75;2.92;;;8.80;99.90;;;;;;5014164;28;20414;-85
2022/01/03 00:50:41;;;;;;;18.70;2.30;;;8.80;99.90;;;;;;5014090;28;20038;-84
2022/01/03 00:53:07;;;;;;;10.35;2.25;;;8.80;99.90;;;;;;5031370;28;20049;-84
2022/01/03 00:55:33;;;;;;;15.68;2.53;;;8.80;99.90;;;;;;5013917;28;20037;-84
2022/01/03 00:58:09;;;;;;;19.58;2.90;;;8.80;99.90;;;;;;5029928;28;20045;-84
2022/01/03 01:00:37;;;;;;;13.30;2.40;;;8.80;99.90;;;;;;5030896;28;20037;-85
2022/01/03 01:03:06;;;;;;;23.10;2.53;;;8.70;99.90;;;;;;5031496;28;20381;-84
2022/01/03 01:05:32;;;;;;;15.95;2.70;;;8.70;99.90;;;;;;5014412;28;20045;-85
2022/01/03 01:07:58;;;;;;;24.83;3.50;;;8.80;99.90;;;;;;5031249;28;20403;-87
2022/01/03 01:10:30;;;;;;;24.20;2.78;;;8.80;99.90;;;;;;5027758;28;20029;-84
2022/01/03 01:12:56;;;;;;;13.98;2.30;;;8.80;99.90;;;;;;5011411;28;20487;-84
2022/01/03 01:15:24;;;;;;;18.80;3.17;;;8.80;99.90;;;;;;4999171;28;20033;-84
2022/01/03 01:17:53;;;;;;;20.52;3.03;;;8.80;99.90;;;;;;5030574;28;20041;-87
2022/01/03 01:20:20;;;;;;;17.27;3.53;;;8.80;99.90;;;;;;5030560;28;20037;-85
2022/01/03 01:22:46;;;;;;;18.67;3.85;;;8.80;99.90;;;;;;5030865;28;20042;-84
2022/01/03 01:27:50;;;;;;;20.42;3.30;;;8.80;99.90;;;;;;5031168;28;20073;-85
2022/01/03 01:30:18;;;;;;;18.17;3.72;;;8.80;99.90;;;;;;5030987;28;20029;-83
2022/01/03 01:32:53;;;;;;;21.98;2.95;;;8.90;99.90;;;;;;5014836;28;20041;-84
2022/01/03 01:35:21;;;;;;;18.40;2.83;;;8.80;99.90;;;;;;5030898;28;20526;-85
2022/01/03 01:37:52;;;;;;;19.10;3.38;;;8.90;99.90;;;;;;5031841;28;20037;-85
2022/01/03 01:40:17;;;;;;;17.02;2.78;;;8.90;99.90;;;;;;5031036;28;20038;-86
2022/01/03 01:42:45;;;;;;;22.38;3.08;;;8.90;99.90;;;;;;5030477;28;20613;-85
2022/01/03 01:45:12;;;;;;;18.48;3.15;;;8.90;99.90;;;;;;5030777;28;20045;-84
2022/01/03 01:47:39;;;;;;;18.15;3.20;;;9.00;99.90;;;;;;5014267;28;20045;-84
2022/01/03 01:50:09;;;;;;;15.63;3.00;;;9.00;99.90;;;;;;5030945;28;20442;-83
2022/01/03 01:52:37;;;;;;;14.43;2.97;;;9.00;99.90;;;;;;5031996;28;20044;-83
2022/01/03 01:55:12;;;;;;;19.77;3.25;;;9.00;99.90;;;;;;5034856;28;20048;-85
2022/01/03 01:58:04;;;;;;;19.77;2.97;;;9.10;99.90;;;;;;5034120;28;20052;-84
2022/01/03 02:00:34;;;;;;;16.23;2.90;;;9.10;99.90;;;;;;5017769;28;20038;-84
2022/01/03 02:03:24;;;;;;;15.13;2.83;;;9.10;99.90;;;;;;5018023;28;20042;-84
2022/01/03 02:06:31;;;;;;;13.80;3.20;;;9.10;99.90;;;;;;5033892;28;20522;-83
2022/01/03 02:09:04;;;;;;;21.73;3.58;;;9.10;99.90;;;;;;5017827;28;20068;-83
2022/01/03 02:11:39;;;;;;;24.10;3.65;;;9.10;99.90;;;;;;5018074;28;20060;-84
2022/01/03 02:14:04;;;;;;;18.83;2.97;;;9.10;99.90;;;;;;5018475;28;20045;-85
2022/01/03 02:16:32;;;;;;;13.13;2.72;;;9.10;99.90;;;;;;5018379;28;20053;-84
2022/01/03 02:18:58;;;;;;;25.55;3.65;;;9.20;99.90;;;;;;5016719;28;20049;-83
2022/01/03 02:21:23;;;;;;;20.90;3.22;;;9.20;99.90;;;;;;5033590;28;20049;-85
2022/01/03 02:23:49;;;;;;;16.27;2.88;;;9.10;99.90;;;;;;5017956;28;20430;-85
2022/01/03 02:26:15;;;;;;;21.48;3.08;;;9.10;99.90;;;;;;5017396;28;20530;-84
2022/01/03 02:28:40;;;;;;;14.52;2.95;;;9.10;99.90;;;;;;5034080;28;20048;-83
2022/01/03 02:31:06;;;;;;;23.27;4.18;;;9.10;99.90;;;;;;5033646;28;20120;-83
2022/01/03 02:33:32;;;;;;;21.92;3.53;;;9.10;99.90;;;;;;5005092;28;20037;-84
2022/01/03 02:35:58;;;;;;;17.73;3.67;;;9.10;99.90;;;;;;5020818;28;20414;-84
2022/01/03 02:38:24;;;;;;;25.88;4.15;;;9.10;99.90;;;;;;5016564;28;20116;-84
2022/01/03 02:40:50;;;;;;;21.58;2.88;;;9.10;99.90;;;;;;5031839;28;20045;-84
2022/01/03 02:43:16;;;;;;;19.50;3.60;;;9.10;99.90;;;;;;5015933;28;20036;-85
2022/01/03 02:45:42;;;;;;;20.90;3.67;;;9.10;99.90;;;;;;5033733;28;20030;-84
2022/01/03 02:48:07;;;;;;;21.90;3.83;;;9.10;99.90;;;;;;5016262;28;20095;-85
2022/01/03 02:50:34;;;;;;;16.50;3.30;;;9.00;99.90;;;;;;5017101;28;20502;-84
2022/01/03 02:53:00;;;;;;;19.40;3.88;;;9.00;99.90;;;;;;5033014;28;20045;-84
2022/01/03 02:55:26;;;;;;;15.93;3.25;;;9.00;99.90;;;;;;5033527;28;20118;-84
2022/01/03 02:57:55;;;;;;;29.02;4.35;;;9.00;99.90;;;;;;5032251;28;20029;-85
2022/01/03 03:00:23;;;;;;;21.00;3.78;;;9.00;99.90;;;;;;5016639;28;20033;-82
2022/01/03 03:02:49;;;;;;;23.50;3.70;;;9.00;99.90;;;;;;5016807;28;20123;-85
2022/01/03 03:05:16;;;;;;;21.58;3.50;;;9.00;99.90;;;;;;5025117;28;20052;-84
2022/01/03 03:07:43;;;;;;;20.65;4.03;;;9.00;99.90;;;;;;5033657;28;20044;-85
2022/01/03 03:10:13;;;;;;;21.88;4.32;;;9.00;99.90;;;;;;5030816;28;20045;-84
2022/01/03 03:12:39;;;;;;;22.80;3.28;;;9.00;99.90;;;;;;5033497;28;20042;-84
2022/01/03 03:15:07;;;;;;;18.95;3.60;;;8.90;99.90;;;;;;5016907;28;20806;-83
2022/01/03 03:17:32;;;;;;;22.83;3.15;;;9.00;99.90;;;;;;5033041;28;20049;-84
2022/01/03 03:20:01;;;;;;;22.77;4.32;;;9.00;99.90;;;;;;5033623;28;20038;-84
2022/01/03 03:22:29;;;;;;;19.52;3.80;;;8.90;99.90;;;;;;5016585;28;20518;-84
2022/01/03 03:25:03;;;;;;;22.15;3.72;;;8.90;99.90;;;;;;5032594;28;20057;-85
2022/01/03 03:27:29;;;;;;;28.67;4.47;;;8.80;99.90;;;;;;5032839;28;20091;-83
2022/01/03 03:29:56;;;;;;;24.63;5.05;;;8.80;99.90;;;;;;5032972;28;20086;-84
2022/01/03 03:32:21;;;;;;;21.23;3.60;;;8.80;99.90;;;;;;5033456;28;20065;-84
2022/01/03 03:34:48;;;;;;;23.77;3.35;;;8.80;99.90;;;;;;5032774;28;20072;-84
2022/01/03 03:37:15;;;;;;;24.50;4.10;;;8.80;99.90;;;;;;5032966;28;20102;-84
2022/01/03 03:39:41;;;;;;;27.15;4.50;;;8.70;99.90;;;;;;5016191;28;20046;-85
2022/01/03 03:42:07;;;;;;;18.35;3.40;;;8.70;99.90;;;;;;5032046;28;20081;-86
2022/01/03 03:44:35;;;;;;;27.73;5.15;;;8.60;99.90;;;;;;5033164;28;20049;-84
2022/01/03 03:47:01;;;;;;;27.80;4.20;;;8.60;99.90;;;;;;5032284;28;20042;-84
2022/01/03 03:49:27;;;;;;;24.45;3.60;;;8.60;99.90;;;;;;5015668;28;20494;-84
2022/01/03 03:51:52;;;;;;;22.88;3.50;;;8.60;99.90;;;;;;5033191;28;20043;-84
2022/01/03 03:54:18;;;;;;;21.70;3.90;;;8.60;99.90;;;;;;5033039;28;20069;-84
2022/01/03 03:56:44;;;;;;;26.08;4.30;;;8.60;99.90;;;;;;5033150;28;20064;-84
2022/01/03 03:59:10;;;;;;;19.90;3.28;;;8.60;99.90;;;;;;5031837;28;20036;-84
2022/01/03 04:01:35;;;;;;;18.02;3.83;;;8.60;99.90;;;;;;5015899;28;20038;-84
2022/01/03 04:04:01;;;;;;;24.95;4.10;;;8.50;99.90;;;;;;5031800;28;20033;-84
2022/01/03 04:06:27;;;;;;;24.55;4.60;;;8.50;99.90;;;;;;5015789;28;20037;-84
2022/01/03 04:08:52;;;;;;;22.95;3.80;;;8.50;99.90;;;;;;5031963;28;20136;-84
2022/01/03 04:11:18;;;;;;;26.45;4.25;;;8.50;99.90;;;;;;5031836;28;20503;-85
2022/01/03 04:13:44;;;;;;;19.75;3.72;;;8.50;99.90;;;;;;5016156;28;20124;-84
2022/01/03 04:16:10;;;;;;;22.90;4.32;;;8.60;99.90;;;;;;5030933;28;20435;-84
2022/01/03 04:18:36;;;;;;;23.10;4.03;;;8.60;99.90;;;;;;5032380;28;20064;-84
2022/01/03 04:21:02;;;;;;;21.05;3.75;;;8.70;99.90;;;;;;5032056;28;20045;-84
2022/01/03 04:23:27;;;;;;;28.10;5.00;;;8.70;99.90;;;;;;5032028;28;20045;-84
2022/01/03 04:25:53;;;;;;;27.17;3.67;;;8.70;99.90;;;;;;5015927;28;20045;-84
2022/01/03 04:28:19;;;;;;;27.83;4.75;;;8.70;99.90;;;;;;5014504;28;20126;-86
2022/01/03 04:30:45;;;;;;;26.02;4.13;;;8.70;99.90;;;;;;5032386;28;20076;-84
2022/01/03 04:33:11;;;;;;;23.13;4.45;;;8.70;99.90;;;;;;5032404;28;20439;-85
2022/01/03 04:35:37;;;;;;;25.05;3.72;;;8.80;99.90;;;;;;5031883;28;20037;-84
2022/01/03 04:38:03;;;;;;;27.50;3.95;;;8.70;99.90;;;;;;5031612;28;20048;-85
2022/01/03 04:40:30;;;;;;;26.05;4.25;;;8.70;99.90;;;;;;5015116;28;20495;-85
2022/01/03 04:42:55;;;;;;;27.92;3.85;;;8.60;99.90;;;;;;5014675;28;20033;-83
2022/01/03 04:45:21;;;;;;;26.33;4.38;;;8.60;99.90;;;;;;5030633;28;20040;-84
2022/01/03 04:47:47;;;;;;;29.88;3.92;;;8.60;99.90;;;;;;5031147;28;20050;-85
2022/01/03 04:50:13;;;;;;;22.92;3.55;;;8.60;99.90;;;;;;5014785;28;20037;-84
2022/01/03 04:52:38;;;;;;;30.08;3.95;;;8.60;99.90;;;;;;5015092;28;20042;-84
2022/01/03 04:55:04;;;;;;;25.60;4.32;;;8.60;99.90;;;;;;5030760;28;20067;-84
2022/01/03 04:57:30;;;;;;;27.52;4.22;;;8.60;99.90;;;;;;5031379;28;20049;-82
2022/01/03 04:59:55;;;;;;;21.25;3.45;;;8.70;99.90;;;;;;5014641;28;20057;-85
2022/01/03 05:02:21;;;;;;;26.02;4.45;;;8.70;99.90;;;;;;5031228;28;20128;-84
2022/01/03 05:04:47;;;;;;;26.73;4.43;;;8.70;99.90;;;;;;5014747;28;20048;-85
2022/01/03 05:07:12;;;;;;;29.25;3.85;;;8.70;99.90;;;;;;5031466;28;20045;-84
2022/01/03 05:09:38;;;;;;;19.25;4.03;;;8.70;99.90;;;;;;5029169;28;20069;-85
2022/01/03 05:12:04;;;;;;;24.42;3.45;;;8.70;99.90;;;;;;5030515;28;20049;-85
2022/01/03 05:14:29;;;;;;;20.88;3.95;;;8.70;99.90;;;;;;5031844;28;20037;-84
2022/01/03 05:16:57;;;;;;;27.38;4.28;;;8.70;99.90;;;;;;5030742;28;20499;-85
2022/01/03 05:19:23;;;;;;;21.70;3.90;;;8.70;99.90;;;;;;5030207;28;20049;-85
2022/01/03 05:21:49;;;;;;;31.05;4.90;;;8.60;99.90;;;;;;5014518;28;20045;-83
2022/01/03 05:24:14;;;;;;;25.05;4.95;;;8.70;99.90;;;;;;5030959;28;20045;-86
2022/01/03 05:26:40;;;;;;;30.17;5.00;;;8.70;99.90;;;;;;5029278;28;20073;-85
2022/01/03 05:29:06;;;;;;;29.27;4.28;;;8.70;99.90;;;;;;5014113;28;20033;-85
2022/01/03 05:31:31;;;;;;;28.75;5.00;;;8.60;99.90;;;;;;5013071;28;20037;-85
2022/01/03 05:34:00;;;;;;;29.67;4.53;;;8.60;99.90;;;;;;5030513;28;20529;-84
2022/01/03 05:36:26;;;;;;;23.80;4.40;;;8.60;99.90;;;;;;5030168;28;20046;-85
2022/01/03 05:38:51;;;;;;;22.67;4.07;;;8.60;99.90;;;;;;5026760;28;20384;-84
2022/01/03 05:41:17;;;;;;;23.40;5.10;;;8.70;99.90;;;;;;5031107;28;20052;-85
2022/01/03 05:43:43;;;;;;;26.38;4.88;;;8.70;99.90;;;;;;5013622;28;20056;-84
2022/01/03 05:46:10;;;;;;;28.90;5.28;;;8.60;99.90;;;;;;5030533;28;20430;-84
2022/01/03 05:48:36;;;;;;;27.70;4.47;;;8.60;99.90;;;;;;5030963;28;20051;-84
2022/01/03 05:51:02;;;;;;;29.15;4.45;;;8.60;99.90;;;;;;5016154;28;20048;-84
2022/01/03 05:53:30;;;;;;;31.13;4.65;;;8.60;99.90;;;;;;4994785;28;20373;-85
2022/01/03 05:55:56;;;;;;;32.63;5.30;;;8.60;99.90;;;;;;5010520;28;20045;-85
2022/01/03 05:58:22;;;;;;;28.98;4.93;;;8.60;99.90;;;;;;4994674;28;20093;-85
2022/01/03 06:00:48;;;;;;;26.95;5.22;;;8.60;99.90;;;;;;4994506;28;20038;-84
2022/01/03 06:03:15;;;;;;;28.83;4.85;;;8.60;99.90;;;;;;5014392;28;20036;-85
2022/01/03 06:05:53;;;;;;;30.70;4.88;;;8.50;99.90;;;;;;5013570;28;20041;-83
2022/01/03 06:08:19;;;;;;;25.83;4.85;;;8.50;99.90;;;;;;5014157;28;20094;-84
2022/01/03 06:10:45;;;;;;;27.40;4.72;;;8.50;99.90;;;;;;5014465;28;20120;-84
2022/01/03 06:13:11;;;;;;;25.00;4.25;;;8.50;99.90;;;;;;5030107;28;20056;-85
2022/01/03 06:15:38;;;;;;;31.10;4.85;;;8.50;99.90;;;;;;5013741;28;20042;-85
2022/01/03 06:18:04;;;;;;;32.70;4.82;;;8.50;99.90;;;;;;5030613;28;20038;-83
2022/01/03 06:20:31;;;;;;;31.70;5.30;;;8.50;99.90;;;;;;5030138;28;20548;-85
2022/01/03 06:22:56;;;;;;;37.80;5.53;;;8.50;99.90;;;;;;5030084;28;20056;-85
2022/01/03 06:25:22;;;;;;;30.80;5.20;;;8.50;99.90;;;;;;5013765;28;20037;-85
2022/01/03 06:27:48;;;;;;;30.52;4.95;;;8.40;99.90;;;;;;5019166;28;20439;-84
2022/01/03 06:30:13;;;;;;;36.90;6.03;;;8.50;99.90;;;;;;4995667;28;20064;-83
2022/01/03 06:32:39;;;;;;;25.38;3.83;;;8.40;99.90;;;;;;5028800;28;20079;-83
2022/01/03 06:35:05;;;;;;;32.13;4.57;;;8.50;99.90;;;;;;5029829;28;20041;-84
2022/01/03 06:37:31;;;;;;;26.73;3.75;;;8.40;99.90;;;;;;5030340;28;20042;-85
2022/01/03 06:39:56;;;;;;;33.00;4.60;;;8.40;99.90;;;;;;5015712;28;20049;-84
2022/01/03 06:42:22;;;;;;;28.95;4.45;;;8.40;99.90;;;;;;5033805;28;20128;-84
2022/01/03 06:44:48;;;;;;;23.92;4.00;;;8.40;99.90;;;;;;5032505;28;20112;-85
2022/01/03 06:47:14;;;;;;;29.60;5.10;;;8.40;99.90;;;;;;5032106;28;20120;-86
2022/01/03 06:49:40;;;;;;;29.20;4.35;;;8.30;99.90;;;;;;5016484;28;20044;-85
2022/01/03 06:52:06;;;;;;;27.77;5.30;;;8.30;99.90;;;;;;5034426;28;20499;-84
2022/01/03 06:54:33;;;;;;;32.88;5.25;;;8.20;99.90;;;;;;5017141;28;20033;-85
2022/01/03 06:56:59;;;;;;;29.60;5.18;;;8.30;99.90;;;;;;5016556;28;20395;-85
2022/01/03 06:59:24;;;;;;;27.50;4.85;;;8.30;99.90;;;;;;5014590;28;20037;-85
2022/01/03 07:01:50;;;;;;;30.67;4.80;;;8.30;99.90;;;;;;5033629;28;20041;-84
2022/01/03 07:04:16;;;;;;;30.65;4.60;;;8.30;99.90;;;;;;5031664;28;20045;-85
2022/01/03 07:06:41;;;;;;;30.48;5.10;;;8.30;99.90;;;;;;5033011;28;20056;-85
2022/01/03 07:09:07;;;;;;;29.05;5.03;;;8.30;99.90;;;;;;5033476;28;20079;-84
2022/01/03 07:11:33;;;;;;;31.83;4.35;;;8.30;99.90;;;;;;5023497;28;20041;-84
2022/01/03 07:18:56;;;;;;;35.70;5.10;;;8.30;99.90;;;;;;5033120;28;20045;-85
2022/01/03 07:19:41;;;;;;;35.60;4.70;;;8.30;99.90;;;;;;5033044;28;20047;-84
2022/01/03 07:22:11;;;;;;;29.13;4.07;;;8.30;99.90;;;;;;5033154;28;20047;-85
2022/01/03 07:24:37;;;;;;;30.80;4.72;;;8.30;99.90;;;;;;5016225;28;20506;-85
2022/01/03 07:27:05;;;;;;;33.40;4.63;;;8.30;99.90;;;;;;5015394;28;20469;-83
2022/01/03 07:29:30;;;;;;;30.63;4.82;;;8.30;99.90;;;;;;5032795;28;20091;-86
2022/01/03 07:31:57;;;;;;;28.73;4.90;;;8.30;99.90;;;;;;5033108;28;20454;-85
2022/01/03 07:34:22;;;;;;;30.13;5.28;;;8.30;99.90;;;;;;5032467;28;20037;-85
2022/01/03 07:36:48;;;;;;;27.27;5.07;;;8.30;99.90;;;;;;5015906;28;20088;-84
2022/01/03 07:39:14;;;;;;;31.33;4.65;;;8.30;99.90;;;;;;5033424;28;20508;-86
2022/01/03 07:41:39;;;;;;;34.20;5.00;;;8.30;99.90;;;;;;5032657;28;20461;-84
2022/01/03 07:44:05;;;;;;;30.90;4.35;;;8.30;99.90;;;;;;5030998;28;20033;-85
2022/01/03 07:46:30;;;;;;;30.63;4.28;;;8.30;99.90;;;;;;5024299;28;20034;-84
2022/01/03 07:48:56;;;;;;;30.92;4.70;;;8.20;99.90;;;;;;5018923;28;20042;-84
2022/01/03 07:51:22;;;;;;;33.50;4.57;;;8.30;99.90;;;;;;5032081;28;20072;-85
2022/01/03 07:53:47;;;;;;;29.08;5.05;;;8.30;99.90;;;;;;5015224;28;20037;-84
2022/01/03 07:56:13;;;;;;;27.45;4.47;;;8.30;99.90;;;;;;5031401;28;20384;-86
2022/01/03 07:58:39;;;;;;;35.58;5.18;;;8.30;99.90;;;;;;5030765;28;20056;-84
2022/01/03 08:01:05;;;;;;;31.73;4.03;;;8.40;99.90;;;;;;5014464;28;20417;-85
2022/01/03 08:03:31;;;;;;;35.83;6.10;;;8.50;99.90;;;;;;5030825;28;20083;-85
2022/01/03 08:05:56;;;;;;;34.75;5.00;;;8.50;99.90;;;;;;5030430;28;20481;-84
2022/01/03 08:08:22;;;;;;;24.52;4.22;;;8.60;99.90;;;;;;5031066;28;20038;-84
2022/01/03 08:10:48;;;;;;;28.08;4.32;;;8.60;99.90;;;;;;5029787;28;20522;-85
2022/01/03 08:13:14;;;;;;;25.30;5.00;;;8.60;99.90;;;;;;5021805;28;20041;-85
2022/01/03 08:15:40;;;;;;;35.53;5.05;;;8.70;99.90;;;;;;5013253;28;20080;-85
2022/01/03 08:18:07;;;;;;;25.08;3.90;;;8.70;99.90;;;;;;5015118;28;20045;-84
2022/01/03 08:20:32;;;;;;;31.30;5.18;;;8.80;99.90;;;;;;5030714;28;20041;-83
2022/01/03 08:22:58;;;;;;;33.05;5.70;;;8.80;99.90;;;;;;5015758;28;20041;-84
2022/01/03 08:25:24;;;;;;;27.33;3.90;;;8.80;99.90;;;;;;5030661;28;20060;-85
2022/01/03 08:27:50;;;;;;;29.48;4.35;;;8.80;99.90;;;;;;5013805;28;20546;-85
2022/01/03 08:30:16;;;;;;;28.52;5.38;;;8.80;99.90;;;;;;5030737;28;20045;-85
2022/01/03 08:32:42;;;;;;;33.42;4.80;;;8.80;99.90;;;;;;5030410;28;20042;-85
2022/01/03 08:35:08;;;;;;;30.52;4.97;;;8.80;99.90;;;;;;5030528;28;20471;-85
2022/01/03 08:37:34;;;;;;;32.63;4.93;;;8.90;99.90;;;;;;5030554;28;20094;-84
2022/01/03 08:40:04;;;;;;;34.25;4.32;;;8.90;99.90;;;;;;5031591;28;20124;-85
2022/01/03 08:42:31;;;;;;;31.73;4.68;;;8.90;99.90;;;;;;5031318;28;20037;-85
2022/01/03 08:44:57;;;;;;;31.15;4.68;;;8.90;99.90;;;;;;5030450;28;20049;-85
2022/01/03 08:47:22;;;;;;;26.55;4.28;;;8.90;99.90;;;;;;5027939;28;20037;-83
2022/01/03 08:49:48;;;;;;;31.42;4.88;;;9.00;99.90;;;;;;5031175;28;20483;-84
2022/01/03 08:52:15;;;;;;;30.60;5.25;;;9.00;99.90;;;;;;5030103;28;20116;-85
2022/01/03 08:54:41;;;;;;;27.10;3.85;;;9.00;99.90;;;;;;5013401;28;20030;-81
2022/01/03 08:57:07;;;;;;;29.70;4.25;;;9.10;99.90;;;;;;5029268;28;20037;-85
2022/01/03 08:59:32;;;;;;;26.27;4.55;;;9.10;99.90;;;;;;5029664;28;20499;-85
2022/01/03 09:01:58;;;;;;;29.35;4.70;;;9.10;99.90;;;;;;5023889;28;20095;-84
2022/01/03 09:04:24;;;;;;;32.00;4.88;;;9.10;99.90;;;;;;5025723;28;20523;-84
2022/01/03 09:06:51;;;;;;;26.05;4.28;;;9.20;99.90;;;;;;5029600;28;20056;-85
2022/01/03 09:09:17;;;;;;;28.15;4.15;;;9.20;99.90;;;;;;5029468;28;20029;-84
2022/01/03 09:11:43;;;;;;;26.98;5.60;;;9.20;99.90;;;;;;5029128;28;20084;-85
2022/01/03 09:14:08;;;;;;;27.60;4.30;;;9.20;99.90;;;;;;5011613;28;20498;-84
2022/01/03 09:16:34;;;;;;;26.17;5.03;;;9.20;99.90;;;;;;5026456;28;20137;-83
2022/01/03 09:18:59;;;;;;;24.17;4.78;;;9.30;99.90;;;;;;5030568;28;20037;-84
2022/01/03 09:21:25;;;;;;;27.33;4.15;;;9.20;99.90;;;;;;5031134;28;20053;-84
2022/01/03 09:24:04;;;;;;;23.17;3.70;;;9.20;99.90;;;;;;5030939;28;20080;-85
2022/01/03 09:29:16;;;;;;;;;;;9.20;99.90;;;;;;5027815;28;20053;-85
2022/01/03 09:31:41;;;;;;;23.90;3.97;;;9.20;99.90;;;;;;5022221;28;19964;-85
2022/01/03 09:34:08;;;;;;;24.73;4.05;;;9.30;99.90;;;;;;5010393;28;20034;-84
2022/01/03 09:36:34;;;;;;;22.35;4.07;;;9.30;99.90;;;;;;5012615;28;20411;-84
2022/01/03 09:39:02;;;;;;;26.58;4.13;;;9.30;99.90;;;;;;5027453;28;20041;-85
2022/01/03 09:41:28;;;;;;;29.95;5.55;;;9.40;99.90;;;;;;5013837;28;20041;-84
2022/01/03 09:43:59;;;;;;;26.35;4.25;;;9.50;99.90;;;;;;5026515;28;20052;-84
2022/01/03 09:46:32;;;;;;;25.42;4.68;;;9.40;99.90;;;;;;5027763;28;20133;-84
2022/01/03 09:48:58;;;;;;;34.22;5.43;;;9.40;99.90;;;;;;5014153;28;20033;-85
2022/01/03 09:51:29;;;;;;;27.17;5.15;;;9.40;99.90;;;;;;5020627;28;20033;-83
2022/01/03 09:54:07;;;;;;;25.05;4.97;;;9.40;99.90;;;;;;5019386;28;20057;-84
2022/01/03 09:56:35;;;;;;;24.30;4.05;;;9.40;99.90;;;;;;5025165;28;20048;-85
2022/01/03 09:59:01;;;;;;;27.00;4.28;;;9.50;99.90;;;;;;5012636;28;20046;-83
2022/01/03 10:01:29;;;;;;;24.38;3.78;;;9.50;99.90;;;;;;5013492;28;20054;-83
2022/01/03 10:03:54;;;;;;;35.05;4.88;;;9.50;99.90;;;;;;5029929;28;20045;-84
2022/01/03 10:06:21;;;;;;;22.75;4.00;;;9.50;99.90;;;;;;5026482;28;20036;-84
2022/01/03 10:08:47;;;;;;;26.77;4.10;;;9.50;99.90;;;;;;5005014;28;20052;-84
2022/01/03 10:11:14;;;;;;;32.03;4.40;;;9.50;99.90;;;;;;5027752;28;20085;-84
2022/01/03 10:13:41;;;;;;;28.95;4.90;;;9.60;99.90;;;;;;5029493;28;20045;-84
2022/01/03 10:16:07;;;;;;;22.02;3.85;;;9.60;99.90;;;;;;5026385;28;20124;-84
2022/01/03 10:18:33;;;;;;;26.77;5.53;;;9.60;99.90;;;;;;5033928;28;20048;-83
2022/01/03 10:21:04;;;;;;;26.42;4.97;;;9.60;99.90;;;;;;5031454;28;20495;-84
2022/01/03 10:23:29;;;;;;;28.08;4.40;;;9.60;99.90;;;;;;5016260;28;20121;-84
2022/01/03 10:26:16;;;;;;;26.25;3.72;;;9.60;99.90;;;;;;5031274;28;20600;-85
2022/01/03 10:28:43;;;;;;;26.55;4.55;;;9.60;99.90;;;;;;5032756;28;20116;-85
2022/01/03 10:31:16;;;;;;;21.70;4.03;;;9.60;99.90;;;;;;5018192;28;20408;-84
2022/01/03 10:33:43;;;;;;;;;;;9.60;99.90;;;;;;5017168;28;20030;-85
2022/01/03 10:36:26;;;;;;;22.48;4.25;;;9.70;99.90;;;;;;5017690;28;19917;-84
2022/01/03 10:38:51;;;;;;;25.13;4.28;;;9.70;99.90;;;;;;5018021;28;20044;-85
2022/01/03 10:41:19;;;;;;;23.58;3.65;;;9.70;99.90;;;;;;5013758;28;20033;-85
2022/01/03 10:43:51;;;;;;;25.42;3.90;;;9.80;99.90;;;;;;5016151;28;20072;-84
2022/01/03 10:46:27;;;;;;;23.95;5.65;;;9.90;99.90;;;;;;5015554;28;20057;-84
2022/01/03 10:49:04;;;;;;;23.85;4.20;;;9.90;99.90;;;;;;5014595;28;20041;-84
2022/01/03 10:51:30;;;;;;;28.67;4.72;;;9.90;99.90;;;;;;5031373;28;20040;-84
2022/01/03 10:53:56;;;;;;;26.88;5.07;;;9.90;99.90;;;;;;5030341;28;20037;-85
2022/01/03 10:56:34;;;;;;;21.08;4.60;;;9.90;99.90;;;;;;5014812;28;20136;-86
2022/01/03 10:59:24;;;;;;;25.75;4.40;;;9.80;99.90;;;;;;5031989;28;20504;-84
2022/01/03 11:01:58;;;;;;;24.17;3.90;;;9.90;99.90;;;;;;5015753;28;20045;-84
2022/01/03 11:04:44;;;;;;;24.00;4.53;;;10.00;99.90;;;;;;5027187;28;20041;-86
2022/01/03 11:13:11;;;;;;;24.30;4.63;;;10.10;99.90;;;;;;5016577;28;20107;-84
2022/01/03 11:15:54;;;;;;;29.23;4.80;;;10.10;99.90;;;;;;5026894;28;20045;-84
2022/01/03 11:18:20;;;;;;;22.58;3.60;;;10.20;99.90;;;;;;5033832;28;20041;-85
2022/01/03 11:20:49;;;;;;;23.80;3.78;;;10.30;99.90;;;;;;5016077;28;20095;-85
2022/01/03 11:23:20;;;;;;;26.48;4.35;;;10.30;99.90;;;;;;5033883;28;20038;-84
2022/01/03 11:25:46;;;;;;;30.77;4.63;;;10.30;99.90;;;;;;5016324;28;20095;-84
2022/01/03 11:28:12;;;;;;;24.80;4.57;;;10.30;99.90;;;;;;5016571;28;20045;-83
2022/01/03 11:30:39;;;;;;;23.63;4.90;;;10.20;99.90;;;;;;5033247;28;20041;-84
2022/01/03 11:33:08;;;;;;;23.52;3.75;;;10.20;99.90;;;;;;5017014;28;20034;-84
2022/01/03 11:35:34;;;;;;;24.48;4.10;;;10.20;99.90;;;;;;5032714;28;20092;-84
2022/01/03 11:38:01;;;;;;;23.27;3.85;;;10.20;99.90;;;;;;5033444;28;20045;-84
2022/01/03 11:40:28;;;;;;;23.90;4.35;;;10.20;99.90;;;;;;5033287;28;20045;-84
2022/01/03 11:42:54;;;;;;;24.27;3.85;;;10.20;99.90;;;;;;5032924;28;20041;-85
2022/01/03 11:45:20;;;;;;;24.25;4.20;;;10.20;99.90;;;;;;5032966;28;20034;-82
2022/01/03 11:47:47;;;;;;;29.42;3.92;;;10.30;99.90;;;;;;5016693;28;20049;-83
2022/01/03 11:50:13;;;;;;;20.20;3.58;;;10.30;99.90;;;;;;5032488;28;20037;-83
2022/01/03 11:52:41;;;;;;;27.15;3.90;;;10.30;99.90;;;;;;5032299;28;20040;-84
2022/01/03 11:55:08;;;;;;;22.70;3.85;;;10.40;99.90;;;;;;5015896;28;20564;-83
2022/01/03 12:05:57;;;;;;;27.90;4.13;;;10.20;99.90;;;;;;5031907;28;20568;-85
2022/01/03 12:08:26;;;;;;;21.27;4.00;;;10.10;99.90;;;;;;5031087;28;20305;-84
2022/01/03 12:10:52;;;;;;;24.02;4.00;;;10.10;99.90;;;;;;5015138;28;20052;-85
2022/01/03 12:13:19;;;;;;;22.77;3.70;;;10.10;99.90;;;;;;5032506;28;20167;-83
2022/01/03 12:15:45;;;;;;;19.23;3.08;;;10.10;99.90;;;;;;5031857;28;20073;-84
2022/01/03 12:18:30;;;;;;;24.33;4.20;;;10.10;99.90;;;;;;5032168;28;20561;-85
2022/01/03 12:20:56;;;;;;;26.95;3.70;;;10.10;99.90;;;;;;5032008;28;20086;-85
2022/01/03 12:23:37;;;;;;;25.42;4.03;;;10.10;99.90;;;;;;5032142;28;20467;-84
2022/01/03 12:26:10;;;;;;;23.42;3.83;;;10.10;99.90;;;;;;5014710;28;20076;-84
2022/01/03 12:29:05;;;;;;;24.70;3.85;;;10.10;99.90;;;;;;5013399;28;20053;-84
2022/01/03 12:32:02;;;;;;;23.90;3.45;;;10.20;99.90;;;;;;5030612;28;20041;-83
2022/01/03 12:34:28;;;;;;;23.95;3.80;;;10.30;99.90;;;;;;5031376;28;20128;-83
2022/01/03 12:37:12;;;;;;;24.77;4.10;;;10.40;99.90;;;;;;5014350;28;20037;-83
2022/01/03 12:40:04;;;;;;;28.02;4.57;;;10.30;99.90;;;;;;5030722;28;20037;-82
2022/01/03 12:42:51;;;;;;;25.02;4.97;;;10.30;99.90;;;;;;5031223;28;20111;-85
2022/01/03 12:45:29;;;;;;;25.10;5.13;;;10.40;99.90;;;;;;5031068;28;20041;-82
2022/01/03 12:50:51;;;;;;;24.40;3.70;;;10.40;99.90;;;;;;5031362;28;20564;-82
2022/01/03 12:53:23;;;;;;;24.35;4.72;;;10.40;99.90;;;;;;5031100;28;20038;-81
2022/01/03 12:55:52;;;;;;;20.50;4.43;;;10.40;99.90;;;;;;5014523;28;20092;-83
2022/01/03 12:58:20;;;;;;;23.67;3.97;;;10.40;99.90;;;;;;5031121;28;20033;-85
2022/01/03 13:00:48;;;;;;;23.77;4.57;;;10.50;99.90;;;;;;5031372;28;20132;-84
2022/01/03 13:03:27;;;;;;;20.73;4.53;;;10.40;99.90;;;;;;5031272;28;20091;-83
2022/01/03 13:06:13;;;;;;;18.13;3.92;;;10.40;99.90;;;;;;5014613;28;20041;-85
2022/01/03 13:08:52;;;;;;;19.80;3.75;;;10.40;99.90;;;;;;5031140;28;20038;-84
2022/01/03 13:11:17;;;;;;;20.85;4.75;;;10.40;99.90;;;;;;5031019;28;20137;-83
2022/01/03 13:13:45;;;;;;;23.73;3.88;;;10.30;99.90;;;;;;5031063;28;20108;-83
2022/01/03 13:16:37;;;;;;;17.92;3.55;;;10.30;99.90;;;;;;5030821;28;20163;-83